createdAt,value
2022-12-05T16:32:59.994Z,6.43
2022-12-05T16:33:31.400Z,5.33
2022-12-05T16:34:12.875Z,4.83
2022-12-05T16:34:44.283Z,4.67
2022-12-05T16:35:30.770Z,4.70
2022-12-05T16:36:11.835Z,4.37
2022-12-05T16:36:49.480Z,4.93
2022-12-05T16:37:24.910Z,5.17
2022-12-05T16:38:14.374Z,5.37
2022-12-05T16:38:45.786Z,4.70
2022-12-05T16:39:19.566Z,4.53
2022-12-05T16:39:51.369Z,4.50
2022-12-05T16:40:22.787Z,4.60
2022-12-05T16:40:54.111Z,5.07
2022-12-05T16:41:32.098Z,4.83
2022-12-05T16:42:03.520Z,4.50
2022-12-05T16:42:34.950Z,4.13
2022-12-05T16:43:20.840Z,4.30
2022-12-05T16:43:52.265Z,4.30
2022-12-05T16:44:52.993Z,4.60
2022-12-05T16:45:42.963Z,4.60
2022-12-05T16:46:14.416Z,4.53
2022-12-05T16:46:45.913Z,4.97
2022-12-05T16:47:24.295Z,4.93
2022-12-05T16:47:56.985Z,4.70
2022-12-05T16:48:31.063Z,4.37
2022-12-05T16:49:17.351Z,4.23
2022-12-05T16:49:48.804Z,4.63
2022-12-05T16:50:30.246Z,4.77
2022-12-05T16:51:13.668Z,4.20
2022-12-05T16:51:45.967Z,4.50
2022-12-05T16:52:17.381Z,4.30
2022-12-05T16:52:48.805Z,4.30
2022-12-05T16:53:21.278Z,4.23
2022-12-05T16:53:53.281Z,4.70
2022-12-05T16:54:24.675Z,4.47
2022-12-05T16:54:56.234Z,4.67
2022-12-05T16:55:27.778Z,4.60
2022-12-05T16:55:59.424Z,4.40
2022-12-05T16:56:31.560Z,4.47
2022-12-05T16:57:03.063Z,4.57
2022-12-05T16:57:34.497Z,4.57
2022-12-05T16:58:05.906Z,4.20
2022-12-05T16:58:37.323Z,4.13
2022-12-05T16:59:12.515Z,4.27
2022-12-05T16:59:43.938Z,4.27
2022-12-05T17:00:15.595Z,4.10
2022-12-05T17:00:47.020Z,3.97
2022-12-05T17:01:21.977Z,4.20
2022-12-05T17:01:53.491Z,4.20
2022-12-05T17:02:25.027Z,4.30
2022-12-05T17:03:18.371Z,4.47
2022-12-05T17:03:48.011Z,4.87
2022-12-05T17:04:19.520Z,4.90
2022-12-05T17:04:52.218Z,4.20
2022-12-05T17:05:23.697Z,4.43
2022-12-05T17:05:55.231Z,4.70
2022-12-05T17:06:26.634Z,4.80
2022-12-05T17:06:58.050Z,4.17
2022-12-05T17:08:47.570Z,3.97
2022-12-05T17:09:18.970Z,4.37
2022-12-05T17:09:50.374Z,4.27
2022-12-05T17:10:21.770Z,4.37
2022-12-05T17:10:53.238Z,4.27
2022-12-05T17:11:30.993Z,4.27
2022-12-05T17:12:06.954Z,4.30
2022-12-05T17:12:39.471Z,4.23
2022-12-05T17:13:15.497Z,4.10
2022-12-05T17:13:46.922Z,4.37
2022-12-05T17:14:18.343Z,4.60
2022-12-05T17:14:49.806Z,4.40
2022-12-05T17:15:21.212Z,4.23
2022-12-05T17:15:52.716Z,4.20
2022-12-05T17:16:24.184Z,3.83
2022-12-05T17:16:55.618Z,4.07
2022-12-05T17:17:27.047Z,4.43
2022-12-05T17:17:58.446Z,3.97
2022-12-05T17:18:32.086Z,4.70
2022-12-05T17:19:03.642Z,4.70
2022-12-05T17:19:35.044Z,4.47
2022-12-05T17:20:06.722Z,4.23
2022-12-05T17:20:38.479Z,4.67
2022-12-05T17:21:10.600Z,4.40
2022-12-05T17:21:45.035Z,4.07
2022-12-05T17:22:16.454Z,4.40
2022-12-05T17:22:47.856Z,4.50
2022-12-05T17:23:19.265Z,4.53
2022-12-05T17:23:50.764Z,4.43
2022-12-05T17:24:22.192Z,4.40
2022-12-05T17:24:53.600Z,4.07
2022-12-05T17:25:34.455Z,4.33
2022-12-05T17:26:05.867Z,4.53
2022-12-05T17:26:37.288Z,4.53
2022-12-05T17:27:09.734Z,5.07
2022-12-05T17:27:41.141Z,4.83
2022-12-05T17:28:12.546Z,4.70
2022-12-05T17:28:44.048Z,4.37
2022-12-05T17:29:15.472Z,4.47
2022-12-05T17:29:46.875Z,4.50
2022-12-05T17:30:18.283Z,4.43
2022-12-05T17:30:49.688Z,4.03
2022-12-05T17:31:24.588Z,4.23
2022-12-05T17:31:56.140Z,4.93
2022-12-05T17:32:27.605Z,4.83
2022-12-05T17:32:59.016Z,4.13
2022-12-05T17:33:30.401Z,4.23
2022-12-05T17:34:01.806Z,4.57
2022-12-05T17:34:33.220Z,4.70
2022-12-05T17:35:12.173Z,4.47
2022-12-05T17:35:43.583Z,4.37
2022-12-05T17:36:14.975Z,3.93
2022-12-05T17:36:46.401Z,4.33
2022-12-05T17:37:17.815Z,4.60
2022-12-05T17:37:49.333Z,4.43
2022-12-05T17:38:20.875Z,4.13
2022-12-05T17:38:52.275Z,4.57
2022-12-05T17:39:27.896Z,4.17
2022-12-05T17:40:00.166Z,4.13
2022-12-05T17:40:32.056Z,3.83
2022-12-05T17:41:07.084Z,4.10
2022-12-05T17:41:38.875Z,4.30
2022-12-05T17:42:10.338Z,4.23
2022-12-05T17:42:41.826Z,4.23
2022-12-05T17:43:13.317Z,4.03
2022-12-05T17:43:44.998Z,4.03
2022-12-05T17:44:16.401Z,4.47
2022-12-05T17:44:47.805Z,4.27
2022-12-05T17:45:19.246Z,4.07
2022-12-05T17:45:50.666Z,4.43
2022-12-05T17:46:22.544Z,4.53
2022-12-05T17:46:54.054Z,4.50
2022-12-05T17:47:25.573Z,4.03
2022-12-05T17:47:57.094Z,4.23
2022-12-05T17:48:28.612Z,4.13
2022-12-05T17:49:00.017Z,4.23
2022-12-05T17:49:31.440Z,4.03
2022-12-05T17:50:03.480Z,4.03
2022-12-05T17:50:34.893Z,4.47
2022-12-05T17:51:06.297Z,4.30
2022-12-05T17:51:52.559Z,4.13
2022-12-05T17:52:29.081Z,4.67
2022-12-05T17:53:05.752Z,4.77
2022-12-05T17:53:38.689Z,4.53
2022-12-05T17:54:10.141Z,3.97
2022-12-05T17:54:41.555Z,4.23
2022-12-05T17:55:19.461Z,3.97
2022-12-05T17:55:50.903Z,4.23
2022-12-05T17:56:22.312Z,4.40
2022-12-05T17:56:53.706Z,4.20
2022-12-05T17:57:25.159Z,4.30
2022-12-05T17:57:56.556Z,4.63
2022-12-05T17:58:27.965Z,3.93
2022-12-05T17:59:02.941Z,3.90
2022-12-05T17:59:38.513Z,4.43
2022-12-05T18:00:10.174Z,4.07
2022-12-05T18:00:41.728Z,4.13
2022-12-05T18:01:14.159Z,4.30
2022-12-05T18:01:45.657Z,3.93
2022-12-05T18:02:17.052Z,4.20
2022-12-05T18:02:48.490Z,4.07
2022-12-05T18:03:19.991Z,4.30
2022-12-05T18:03:51.471Z,4.40
2022-12-05T18:04:23.315Z,4.33
2022-12-05T18:04:55.122Z,4.13
2022-12-05T18:05:26.526Z,4.10
2022-12-05T18:05:57.934Z,4.13
2022-12-05T18:06:29.350Z,4.53
2022-12-05T18:07:00.759Z,3.90
2022-12-05T18:07:32.268Z,4.07
2022-12-05T18:08:03.754Z,3.80
2022-12-05T18:08:35.234Z,4.43
2022-12-05T18:09:06.646Z,4.40
2022-12-05T18:09:38.079Z,4.23
2022-12-05T18:10:12.836Z,4.67
2022-12-05T18:10:45.075Z,4.20
2022-12-05T18:11:16.481Z,4.07
2022-12-05T18:11:47.896Z,4.13
2022-12-05T18:12:19.334Z,4.03
2022-12-05T18:12:50.755Z,4.00
2022-12-05T18:13:22.154Z,4.43
2022-12-05T18:13:53.556Z,4.47
2022-12-05T18:14:24.952Z,4.30
2022-12-05T18:14:56.531Z,4.67
2022-12-05T18:15:28.105Z,4.47
2022-12-05T18:15:59.529Z,4.63
2022-12-05T18:16:31.025Z,4.37
2022-12-05T18:17:03.149Z,3.87
2022-12-05T18:17:34.873Z,3.93
2022-12-05T18:18:06.427Z,3.90
2022-12-05T18:18:37.856Z,4.17
2022-12-05T18:19:09.270Z,4.23
2022-12-05T18:19:40.680Z,4.27
2022-12-05T18:20:12.889Z,4.20
2022-12-05T18:20:44.394Z,3.90
2022-12-05T18:21:15.876Z,4.07
2022-12-05T18:21:47.304Z,4.33
2022-12-05T18:22:20.444Z,4.17
2022-12-05T18:22:53.471Z,3.90
2022-12-05T18:23:24.873Z,3.93
2022-12-05T18:23:56.275Z,4.23
2022-12-05T18:24:27.684Z,3.97
2022-12-05T18:24:59.241Z,4.00
2022-12-05T18:25:30.703Z,4.30
2022-12-05T18:26:02.108Z,4.00
2022-12-05T18:26:33.511Z,3.97
2022-12-05T18:27:04.946Z,4.00
2022-12-05T18:27:36.435Z,3.70
2022-12-05T18:28:07.849Z,4.23
2022-12-05T18:28:39.321Z,4.23
2022-12-05T18:29:10.722Z,4.13
2022-12-05T18:29:42.136Z,4.20
2022-12-05T18:30:13.577Z,4.20
2022-12-05T18:30:44.993Z,4.13
2022-12-05T18:31:16.436Z,4.20
2022-12-05T18:31:47.975Z,4.53
2022-12-05T18:32:19.459Z,4.20
2022-12-05T18:32:50.868Z,3.93
2022-12-05T18:33:22.273Z,4.17
2022-12-05T18:33:53.682Z,4.17
2022-12-05T18:34:25.117Z,3.97
2022-12-05T18:34:56.753Z,3.90
2022-12-05T18:35:28.358Z,3.83
2022-12-05T18:36:03.811Z,3.90
2022-12-05T18:36:35.216Z,4.23
2022-12-05T18:37:06.632Z,4.00
2022-12-05T18:37:38.203Z,4.13
2022-12-05T18:38:09.930Z,4.07
2022-12-05T18:38:41.346Z,4.10
2022-12-05T18:39:13.216Z,4.13
2022-12-05T18:39:44.810Z,3.90
2022-12-05T18:40:16.320Z,3.67
2022-12-05T18:40:47.736Z,3.87
2022-12-05T18:41:19.274Z,4.00
2022-12-05T18:41:50.702Z,4.07
2022-12-05T18:42:22.287Z,4.50
2022-12-05T18:42:53.688Z,4.83
2022-12-05T18:43:25.108Z,4.33
2022-12-05T18:43:56.506Z,3.83
2022-12-05T18:44:27.899Z,4.30
2022-12-05T18:44:59.973Z,4.53
2022-12-05T18:45:31.605Z,4.17
2022-12-05T18:46:03.450Z,4.13
2022-12-05T18:46:34.974Z,3.93
2022-12-05T18:47:06.433Z,4.43
2022-12-05T18:47:37.843Z,4.20
2022-12-05T18:48:31.511Z,3.87
2022-12-05T18:49:03.576Z,3.87
2022-12-05T18:49:35.180Z,4.07
2022-12-05T18:50:06.898Z,4.37
2022-12-05T18:50:38.301Z,4.10
2022-12-05T18:51:19.346Z,4.00
2022-12-05T18:51:50.743Z,3.53
2022-12-05T18:52:22.234Z,3.87
2022-12-05T18:52:53.674Z,3.70
2022-12-05T18:54:40.428Z,4.40
2022-12-05T18:55:17.908Z,4.27
2022-12-05T18:56:13.713Z,4.17
2022-12-05T18:56:42.626Z,4.00
2022-12-05T18:57:14.034Z,3.90
2022-12-05T18:57:45.419Z,4.07
2022-12-05T18:58:16.845Z,3.93
2022-12-05T18:59:01.134Z,3.97
2022-12-05T18:59:32.546Z,4.03
2022-12-05T19:00:04.074Z,3.67
2022-12-05T19:00:35.470Z,3.73
2022-12-05T19:01:07.510Z,4.00
2022-12-05T19:01:39.006Z,4.23
2022-12-05T19:03:09.131Z,5.57
2022-12-05T19:03:40.854Z,3.83
2022-12-05T19:04:12.922Z,3.60
2022-12-05T19:04:44.371Z,4.17
2022-12-05T19:06:29.546Z,5.00
2022-12-05T19:07:01.097Z,4.93
2022-12-05T19:07:32.545Z,4.57
2022-12-05T19:08:04.079Z,4.47
2022-12-05T19:08:35.534Z,3.90
2022-12-05T19:09:07.845Z,4.43
2022-12-05T19:09:39.266Z,4.20
2022-12-05T19:10:10.669Z,4.23
2022-12-05T19:10:42.087Z,4.50
2022-12-05T19:11:16.921Z,4.33
2022-12-05T19:11:49.233Z,4.03
2022-12-05T19:12:20.647Z,4.50
2022-12-05T19:12:52.069Z,4.37
2022-12-05T19:13:23.477Z,4.37
2022-12-05T19:13:55.488Z,4.27
2022-12-05T19:14:30.073Z,3.87
2022-12-05T19:15:01.882Z,4.20
2022-12-05T19:15:33.549Z,4.07
2022-12-05T19:16:05.735Z,4.47
2022-12-05T19:16:37.665Z,4.37
2022-12-05T19:17:09.188Z,4.00
2022-12-05T19:17:40.653Z,4.27
2022-12-05T19:18:12.049Z,3.90
2022-12-05T19:18:43.457Z,4.43
2022-12-05T19:19:14.870Z,4.33
2022-12-05T19:19:46.285Z,4.27
2022-12-05T19:20:17.693Z,4.07
2022-12-05T19:20:49.492Z,4.13
2022-12-05T19:21:20.926Z,4.13
2022-12-05T19:21:52.366Z,4.23
2022-12-05T19:22:23.767Z,4.30
2022-12-05T19:22:59.301Z,4.07
2022-12-05T19:23:32.738Z,4.40
2022-12-05T19:24:04.588Z,4.80
2022-12-05T19:24:35.986Z,4.33
2022-12-05T19:25:07.579Z,4.40
2022-12-05T19:25:38.991Z,4.20
2022-12-05T19:26:10.369Z,4.27
2022-12-05T19:26:41.908Z,4.00
2022-12-05T19:27:13.323Z,4.17
2022-12-05T19:27:44.755Z,4.33
2022-12-05T19:28:16.154Z,4.43
2022-12-05T19:28:47.650Z,4.53
2022-12-05T21:38:02.332Z,7.27
2022-12-05T21:38:34.282Z,6.93
2022-12-05T21:39:06.238Z,6.83
2022-12-05T21:39:38.204Z,6.43
2022-12-05T21:40:10.222Z,6.63
2022-12-05T21:40:42.905Z,6.97
2022-12-05T21:41:14.845Z,6.70
2022-12-05T21:41:46.805Z,6.23
2022-12-05T21:42:18.733Z,6.90
2022-12-05T21:42:50.656Z,6.77
2022-12-05T21:43:22.776Z,6.27
2022-12-05T21:43:55.655Z,6.47
2022-12-05T21:44:27.889Z,6.10
2022-12-05T21:45:00.079Z,6.40
2022-12-05T21:45:32.167Z,6.07
2022-12-05T21:46:04.288Z,6.00
2022-12-05T21:46:36.351Z,12.87
2022-12-05T21:47:08.323Z,15.57
2022-12-05T21:47:40.266Z,11.13
2022-12-05T21:48:12.213Z,7.40
2022-12-05T21:48:44.123Z,7.20
2022-12-05T21:49:16.043Z,6.73
2022-12-05T21:49:47.970Z,6.47
2022-12-05T21:50:19.908Z,6.30
2022-12-05T21:50:51.929Z,5.87
2022-12-05T21:51:23.842Z,6.10
2022-12-05T21:51:55.782Z,6.57
2022-12-05T21:52:27.708Z,6.50
2022-12-05T21:52:59.637Z,6.67
2022-12-05T21:53:31.580Z,6.40
2022-12-05T21:55:20.639Z,7.10
2022-12-05T21:56:01.232Z,6.63
2022-12-05T21:56:33.154Z,6.60
2022-12-05T21:57:05.077Z,6.37
2022-12-05T21:57:36.999Z,6.07
2022-12-05T21:58:09.021Z,6.47
2022-12-05T21:58:42.522Z,6.70
2022-12-05T22:01:56.562Z,6.63
2022-12-05T22:02:28.576Z,6.23
2022-12-05T22:03:00.592Z,6.57
2022-12-05T22:03:32.642Z,6.07
2022-12-05T22:04:04.571Z,6.47
2022-12-05T22:04:36.636Z,6.47
2022-12-05T22:05:08.753Z,6.23
2022-12-05T22:05:40.725Z,6.67
2022-12-05T22:07:24.580Z,6.43
2022-12-05T22:07:56.622Z,6.17
2022-12-05T22:08:29.353Z,6.17
2022-12-05T22:09:01.395Z,6.57
2022-12-05T22:09:33.357Z,6.73
2022-12-05T22:10:05.849Z,6.90
2022-12-05T22:10:38.087Z,6.30
2022-12-05T22:11:11.190Z,6.00
2022-12-05T22:11:43.116Z,6.10
2022-12-05T22:12:15.043Z,6.17
2022-12-05T22:12:46.966Z,6.23
2022-12-05T22:16:12.726Z,6.73
2022-12-05T22:16:44.719Z,6.40
2022-12-05T22:17:16.680Z,6.77
2022-12-05T22:17:48.689Z,6.53
2022-12-05T22:18:20.618Z,6.53
2022-12-05T22:18:52.564Z,6.53
2022-12-05T22:19:24.503Z,6.43
2022-12-05T22:19:56.629Z,6.13
2022-12-05T22:20:28.720Z,5.73
2022-12-05T22:21:01.548Z,6.03
2022-12-05T22:21:33.479Z,5.83
2022-12-05T22:22:05.452Z,6.23
2022-12-05T22:23:45.834Z,5.63
2022-12-05T22:24:17.759Z,6.33
2022-12-05T22:24:49.693Z,6.43
2022-12-05T22:25:21.672Z,6.03
2022-12-05T22:26:00.034Z,6.10
2022-12-05T22:26:31.990Z,6.13
2022-12-05T22:27:03.918Z,5.67
2022-12-05T22:27:35.838Z,5.87
2022-12-05T22:28:07.775Z,6.03
2022-12-05T22:28:39.709Z,5.73
2022-12-05T22:29:11.617Z,5.30
2022-12-05T22:30:40.628Z,7.13
2022-12-05T22:31:16.175Z,6.03
2022-12-05T22:31:48.152Z,5.87
2022-12-05T22:32:20.214Z,5.83
2022-12-05T22:32:53.328Z,5.87
2022-12-05T22:33:25.369Z,6.17
2022-12-05T22:33:57.328Z,6.00
2022-12-05T22:34:30.409Z,5.80
2022-12-05T22:35:04.239Z,6.07
2022-12-05T22:35:36.511Z,6.53
2022-12-05T22:36:09.105Z,6.20
2022-12-05T22:36:41.037Z,5.83
2022-12-05T22:37:12.966Z,5.70
2022-12-05T22:37:44.909Z,6.03
2022-12-05T22:38:16.866Z,6.20
2022-12-05T22:39:54.300Z,5.80
2022-12-05T22:40:26.290Z,6.17
2022-12-05T22:42:07.913Z,6.00
2022-12-05T22:42:39.807Z,5.67
2022-12-05T22:43:11.698Z,5.80
2022-12-05T22:43:44.104Z,5.70
2022-12-05T22:44:16.018Z,5.70
2022-12-05T22:44:47.904Z,5.80
2022-12-05T22:45:19.798Z,5.80
2022-12-05T22:45:51.816Z,5.87
2022-12-05T22:46:23.772Z,5.87
2022-12-05T22:46:55.795Z,5.67
2022-12-05T22:47:27.795Z,6.13
2022-12-05T22:47:59.689Z,6.00
2022-12-05T22:48:31.576Z,6.17
2022-12-05T22:49:03.774Z,5.97
2022-12-05T22:49:35.655Z,6.13
2022-12-05T22:50:07.903Z,6.07
2022-12-05T22:50:39.806Z,6.33
2022-12-05T22:51:11.745Z,5.87
2022-12-05T22:51:43.660Z,5.77
2022-12-05T22:52:15.550Z,5.93
2022-12-05T22:52:47.434Z,5.43
2022-12-05T22:53:19.852Z,5.70
2022-12-05T22:53:52.020Z,5.20
2022-12-05T22:54:28.708Z,5.77
2022-12-05T22:55:02.173Z,6.23
2022-12-05T22:55:34.079Z,6.37
2022-12-05T22:56:06.873Z,6.13
2022-12-05T22:56:38.756Z,5.87
2022-12-05T22:57:10.635Z,6.10
2022-12-05T22:57:42.517Z,5.90
2022-12-05T22:58:14.411Z,5.47
2022-12-05T22:58:46.353Z,5.87
2022-12-05T22:59:18.259Z,6.00
2022-12-05T22:59:50.171Z,5.77
2022-12-05T23:00:22.083Z,5.77
2022-12-05T23:00:53.978Z,5.40
2022-12-05T23:01:26.964Z,5.37
2022-12-05T23:01:58.858Z,5.80
2022-12-05T23:02:30.779Z,5.87
2022-12-05T23:03:02.800Z,6.27
2022-12-05T23:03:34.739Z,5.63
2022-12-05T23:04:07.542Z,6.13
2022-12-05T23:04:39.479Z,6.13
2022-12-05T23:05:13.200Z,5.57
2022-12-05T23:05:45.092Z,5.80
2022-12-05T23:06:17.341Z,5.50
2022-12-05T23:06:49.232Z,5.97
2022-12-05T23:07:21.141Z,6.30
2022-12-05T23:07:53.099Z,6.13
2022-12-05T23:08:25.012Z,6.07
2022-12-05T23:08:56.904Z,5.30
2022-12-05T23:09:28.818Z,5.40
2022-12-05T23:10:01.127Z,5.77
2022-12-05T23:10:33.212Z,5.50
2022-12-05T23:11:05.328Z,5.07
2022-12-05T23:11:40.024Z,5.90
2022-12-05T23:12:11.978Z,5.50
2022-12-05T23:12:43.872Z,5.90
